sensor_id;sensor_type;location;lat;lon;timestamp;P1;durP1;ratioP1;P2;durP2;ratioP2
41629;SDS011;27322;49.488;8.480;2023-04-30T00:00:04;9.80;;;7.47;;
41629;SDS011;27322;49.488;8.480;2023-04-30T00:02:32;10.70;;;7.93;;
41629;SDS011;27322;49.488;8.480;2023-04-30T00:04:58;9.18;;;7.25;;
41629;SDS011;27322;49.488;8.480;2023-04-30T00:07:23;10.82;;;6.97;;
41629;SDS011;27322;49.488;8.480;2023-04-30T00:09:49;9.30;;;7.30;;
41629;SDS011;27322;49.488;8.480;2023-04-30T00:12:15;10.27;;;6.97;;
41629;SDS011;27322;49.488;8.480;2023-04-30T00:14:41;10.95;;;7.45;;
41629;SDS011;27322;49.488;8.480;2023-04-30T00:17:06;9.60;;;7.13;;
41629;SDS011;27322;49.488;8.480;2023-04-30T00:19:32;10.65;;;7.88;;
41629;SDS011;27322;49.488;8.480;2023-04-30T00:21:57;11.93;;;7.45;;
41629;SDS011;27322;49.488;8.480;2023-04-30T00:24:25;11.07;;;7.47;;
41629;SDS011;27322;49.488;8.480;2023-04-30T00:26:51;11.00;;;7.90;;
41629;SDS011;27322;49.488;8.480;2023-04-30T00:29:17;10.95;;;7.80;;
41629;SDS011;27322;49.488;8.480;2023-04-30T00:31:42;10.95;;;7.70;;
41629;SDS011;27322;49.488;8.480;2023-04-30T00:34:08;12.75;;;7.93;;
41629;SDS011;27322;49.488;8.480;2023-04-30T00:36:34;13.13;;;8.68;;
41629;SDS011;27322;49.488;8.480;2023-04-30T00:38:59;15.23;;;8.90;;
41629;SDS011;27322;49.488;8.480;2023-04-30T00:41:25;14.20;;;8.70;;
41629;SDS011;27322;49.488;8.480;2023-04-30T00:43:52;11.68;;;8.50;;
41629;SDS011;27322;49.488;8.480;2023-04-30T00:46:17;13.05;;;8.77;;
41629;SDS011;27322;49.488;8.480;2023-04-30T00:48:43;11.40;;;8.40;;
41629;SDS011;27322;49.488;8.480;2023-04-30T00:51:09;12.20;;;8.88;;
41629;SDS011;27322;49.488;8.480;2023-04-30T00:53:35;12.65;;;8.43;;
41629;SDS011;27322;49.488;8.480;2023-04-30T00:56:02;12.52;;;8.60;;
41629;SDS011;27322;49.488;8.480;2023-04-30T00:58:29;12.20;;;8.20;;
41629;SDS011;27322;49.488;8.480;2023-04-30T01:00:55;10.63;;;8.55;;
41629;SDS011;27322;49.488;8.480;2023-04-30T01:03:21;11.00;;;8.40;;
41629;SDS011;27322;49.488;8.480;2023-04-30T01:05:46;11.32;;;7.93;;
41629;SDS011;27322;49.488;8.480;2023-04-30T01:08:12;9.98;;;8.10;;
41629;SDS011;27322;49.488;8.480;2023-04-30T01:10:45;11.57;;;8.10;;
41629;SDS011;27322;49.488;8.480;2023-04-30T01:13:39;10.68;;;7.95;;
41629;SDS011;27322;49.488;8.480;2023-04-30T01:16:16;10.20;;;7.85;;
41629;SDS011;27322;49.488;8.480;2023-04-30T01:18:50;9.80;;;7.63;;
41629;SDS011;27322;49.488;8.480;2023-04-30T01:21:20;10.77;;;7.90;;
41629;SDS011;27322;49.488;8.480;2023-04-30T01:29:15;12.02;;;8.05;;
41629;SDS011;27322;49.488;8.480;2023-04-30T01:31:43;10.68;;;8.38;;
41629;SDS011;27322;49.488;8.480;2023-04-30T01:34:09;10.98;;;7.82;;
41629;SDS011;27322;49.488;8.480;2023-04-30T01:42:37;11.57;;;8.32;;
41629;SDS011;27322;49.488;8.480;2023-04-30T01:48:07;10.75;;;8.40;;
41629;SDS011;27322;49.488;8.480;2023-04-30T01:53:51;15.27;;;8.40;;
41629;SDS011;27322;49.488;8.480;2023-04-30T01:56:28;13.48;;;8.85;;
41629;SDS011;27322;49.488;8.480;2023-04-30T01:58:56;12.77;;;8.68;;
41629;SDS011;27322;49.488;8.480;2023-04-30T02:03:52;11.27;;;8.30;;
41629;SDS011;27322;49.488;8.480;2023-04-30T02:06:17;10.70;;;8.30;;
41629;SDS011;27322;49.488;8.480;2023-04-30T02:08:43;10.73;;;8.38;;
41629;SDS011;27322;49.488;8.480;2023-04-30T02:11:08;10.85;;;7.55;;
41629;SDS011;27322;49.488;8.480;2023-04-30T02:13:34;10.35;;;8.15;;
41629;SDS011;27322;49.488;8.480;2023-04-30T02:16:00;9.82;;;7.53;;
41629;SDS011;27322;49.488;8.480;2023-04-30T02:18:25;9.15;;;7.57;;
41629;SDS011;27322;49.488;8.480;2023-04-30T02:20:51;12.68;;;8.63;;
41629;SDS011;27322;49.488;8.480;2023-04-30T02:23:17;12.60;;;8.65;;
41629;SDS011;27322;49.488;8.480;2023-04-30T02:25:42;11.88;;;8.43;;
41629;SDS011;27322;49.488;8.480;2023-04-30T02:28:08;11.77;;;8.05;;
41629;SDS011;27322;49.488;8.480;2023-04-30T02:30:34;11.95;;;8.90;;
41629;SDS011;27322;49.488;8.480;2023-04-30T02:32:59;10.55;;;8.18;;
41629;SDS011;27322;49.488;8.480;2023-04-30T02:35:26;10.38;;;7.60;;
41629;SDS011;27322;49.488;8.480;2023-04-30T02:37:52;12.25;;;9.13;;
41629;SDS011;27322;49.488;8.480;2023-04-30T02:40:17;12.98;;;8.95;;
41629;SDS011;27322;49.488;8.480;2023-04-30T02:42:43;10.75;;;8.43;;
41629;SDS011;27322;49.488;8.480;2023-04-30T02:45:08;13.32;;;8.35;;
41629;SDS011;27322;49.488;8.480;2023-04-30T02:47:34;11.68;;;9.52;;
41629;SDS011;27322;49.488;8.480;2023-04-30T02:50:00;12.45;;;9.23;;
41629;SDS011;27322;49.488;8.480;2023-04-30T02:52:25;17.80;;;9.85;;
41629;SDS011;27322;49.488;8.480;2023-04-30T02:54:51;11.55;;;8.88;;
41629;SDS011;27322;49.488;8.480;2023-04-30T02:57:17;12.57;;;9.05;;
41629;SDS011;27322;49.488;8.480;2023-04-30T02:59:42;12.05;;;8.98;;
41629;SDS011;27322;49.488;8.480;2023-04-30T03:02:10;11.13;;;8.68;;
41629;SDS011;27322;49.488;8.480;2023-04-30T03:04:36;12.90;;;9.07;;
41629;SDS011;27322;49.488;8.480;2023-04-30T03:07:02;13.00;;;8.48;;
41629;SDS011;27322;49.488;8.480;2023-04-30T03:09:29;12.65;;;8.60;;
41629;SDS011;27322;49.488;8.480;2023-04-30T03:11:56;12.20;;;8.68;;
41629;SDS011;27322;49.488;8.480;2023-04-30T03:14:21;11.88;;;8.98;;
41629;SDS011;27322;49.488;8.480;2023-04-30T03:16:47;13.50;;;9.13;;
41629;SDS011;27322;49.488;8.480;2023-04-30T03:19:13;13.20;;;9.30;;
41629;SDS011;27322;49.488;8.480;2023-04-30T03:21:38;13.63;;;9.45;;
41629;SDS011;27322;49.488;8.480;2023-04-30T03:24:05;12.63;;;8.80;;
41629;SDS011;27322;49.488;8.480;2023-04-30T03:26:30;13.88;;;8.93;;
41629;SDS011;27322;49.488;8.480;2023-04-30T03:28:56;12.07;;;8.45;;
41629;SDS011;27322;49.488;8.480;2023-04-30T03:31:22;11.48;;;8.52;;
41629;SDS011;27322;49.488;8.480;2023-04-30T03:33:47;11.15;;;8.50;;
41629;SDS011;27322;49.488;8.480;2023-04-30T03:36:13;13.07;;;8.75;;
41629;SDS011;27322;49.488;8.480;2023-04-30T03:38:39;12.50;;;9.50;;
41629;SDS011;27322;49.488;8.480;2023-04-30T03:41:05;12.73;;;9.00;;
41629;SDS011;27322;49.488;8.480;2023-04-30T03:43:31;14.57;;;9.18;;
41629;SDS011;27322;49.488;8.480;2023-04-30T03:45:57;13.73;;;9.57;;
41629;SDS011;27322;49.488;8.480;2023-04-30T03:48:22;13.02;;;9.82;;
41629;SDS011;27322;49.488;8.480;2023-04-30T03:50:48;12.52;;;9.05;;
41629;SDS011;27322;49.488;8.480;2023-04-30T03:53:13;11.43;;;9.43;;
41629;SDS011;27322;49.488;8.480;2023-04-30T03:55:39;11.85;;;9.25;;
41629;SDS011;27322;49.488;8.480;2023-04-30T03:58:05;14.25;;;9.02;;
41629;SDS011;27322;49.488;8.480;2023-04-30T04:00:31;13.77;;;8.98;;
41629;SDS011;27322;49.488;8.480;2023-04-30T04:02:57;11.60;;;8.88;;
41629;SDS011;27322;49.488;8.480;2023-04-30T04:05:23;11.55;;;8.85;;
41629;SDS011;27322;49.488;8.480;2023-04-30T04:07:49;12.80;;;9.60;;
41629;SDS011;27322;49.488;8.480;2023-04-30T04:10:15;13.48;;;9.52;;
41629;SDS011;27322;49.488;8.480;2023-04-30T04:12:40;11.25;;;9.07;;
41629;SDS011;27322;49.488;8.480;2023-04-30T04:15:06;12.43;;;9.20;;
41629;SDS011;27322;49.488;8.480;2023-04-30T04:17:32;12.48;;;9.23;;
41629;SDS011;27322;49.488;8.480;2023-04-30T04:19:58;11.55;;;8.75;;
41629;SDS011;27322;49.488;8.480;2023-04-30T04:22:24;14.05;;;9.85;;
41629;SDS011;27322;49.488;8.480;2023-04-30T04:24:49;12.77;;;9.48;;
41629;SDS011;27322;49.488;8.480;2023-04-30T04:27:15;12.65;;;9.57;;
41629;SDS011;27322;49.488;8.480;2023-04-30T04:29:41;14.20;;;9.63;;
41629;SDS011;27322;49.488;8.480;2023-04-30T04:32:06;13.02;;;10.13;;
41629;SDS011;27322;49.488;8.480;2023-04-30T04:34:34;11.77;;;9.93;;
41629;SDS011;27322;49.488;8.480;2023-04-30T04:37:00;11.88;;;9.55;;
41629;SDS011;27322;49.488;8.480;2023-04-30T04:39:25;13.52;;;10.30;;
41629;SDS011;27322;49.488;8.480;2023-04-30T04:41:51;13.10;;;9.55;;
41629;SDS011;27322;49.488;8.480;2023-04-30T04:44:16;12.75;;;9.43;;
41629;SDS011;27322;49.488;8.480;2023-04-30T04:46:42;14.20;;;9.98;;
41629;SDS011;27322;49.488;8.480;2023-04-30T04:49:08;14.25;;;10.10;;
41629;SDS011;27322;49.488;8.480;2023-04-30T04:51:34;15.32;;;10.25;;
41629;SDS011;27322;49.488;8.480;2023-04-30T04:53:59;12.63;;;9.93;;
41629;SDS011;27322;49.488;8.480;2023-04-30T04:56:25;11.65;;;9.77;;
41629;SDS011;27322;49.488;8.480;2023-04-30T04:58:51;14.05;;;9.85;;
41629;SDS011;27322;49.488;8.480;2023-04-30T05:01:16;13.70;;;9.60;;
41629;SDS011;27322;49.488;8.480;2023-04-30T05:03:42;16.77;;;10.45;;
41629;SDS011;27322;49.488;8.480;2023-04-30T05:06:08;11.85;;;9.02;;
41629;SDS011;27322;49.488;8.480;2023-04-30T05:08:33;12.00;;;9.18;;
41629;SDS011;27322;49.488;8.480;2023-04-30T05:10:59;13.40;;;10.02;;
41629;SDS011;27322;49.488;8.480;2023-04-30T05:13:24;12.38;;;9.40;;
41629;SDS011;27322;49.488;8.480;2023-04-30T05:15:50;13.15;;;9.95;;
41629;SDS011;27322;49.488;8.480;2023-04-30T05:18:17;13.45;;;9.35;;
41629;SDS011;27322;49.488;8.480;2023-04-30T05:20:43;11.50;;;9.38;;
41629;SDS011;27322;49.488;8.480;2023-04-30T05:23:09;10.88;;;8.68;;
41629;SDS011;27322;49.488;8.480;2023-04-30T05:25:35;12.02;;;9.38;;
41629;SDS011;27322;49.488;8.480;2023-04-30T05:28:00;12.65;;;9.73;;
41629;SDS011;27322;49.488;8.480;2023-04-30T05:30:27;14.85;;;10.18;;
41629;SDS011;27322;49.488;8.480;2023-04-30T05:32:53;13.93;;;9.55;;
41629;SDS011;27322;49.488;8.480;2023-04-30T05:35:20;12.63;;;9.13;;
41629;SDS011;27322;49.488;8.480;2023-04-30T05:37:45;13.48;;;9.82;;
41629;SDS011;27322;49.488;8.480;2023-04-30T05:40:11;11.70;;;9.30;;
41629;SDS011;27322;49.488;8.480;2023-04-30T05:42:37;13.45;;;9.32;;
41629;SDS011;27322;49.488;8.480;2023-04-30T05:45:04;13.25;;;9.63;;
41629;SDS011;27322;49.488;8.480;2023-04-30T05:47:31;13.20;;;9.40;;
41629;SDS011;27322;49.488;8.480;2023-04-30T05:49:56;13.93;;;9.98;;
41629;SDS011;27322;49.488;8.480;2023-04-30T05:52:22;12.43;;;9.38;;
41629;SDS011;27322;49.488;8.480;2023-04-30T05:54:48;11.77;;;9.00;;
41629;SDS011;27322;49.488;8.480;2023-04-30T05:57:13;11.95;;;9.20;;
41629;SDS011;27322;49.488;8.480;2023-04-30T05:59:39;13.15;;;9.35;;
41629;SDS011;27322;49.488;8.480;2023-04-30T06:02:05;12.90;;;9.15;;
41629;SDS011;27322;49.488;8.480;2023-04-30T06:04:31;12.00;;;8.75;;
41629;SDS011;27322;49.488;8.480;2023-04-30T06:06:56;12.32;;;9.05;;
41629;SDS011;27322;49.488;8.480;2023-04-30T06:09:22;13.95;;;9.27;;
41629;SDS011;27322;49.488;8.480;2023-04-30T06:11:47;14.20;;;8.93;;
41629;SDS011;27322;49.488;8.480;2023-04-30T06:14:14;13.00;;;9.38;;
41629;SDS011;27322;49.488;8.480;2023-04-30T06:16:41;12.07;;;8.52;;
41629;SDS011;27322;49.488;8.480;2023-04-30T06:19:08;11.98;;;8.52;;
41629;SDS011;27322;49.488;8.480;2023-04-30T06:21:34;12.20;;;8.57;;
41629;SDS011;27322;49.488;8.480;2023-04-30T06:23:59;13.18;;;8.60;;
41629;SDS011;27322;49.488;8.480;2023-04-30T06:26:25;11.82;;;9.13;;
41629;SDS011;27322;49.488;8.480;2023-04-30T06:28:51;10.30;;;8.10;;
41629;SDS011;27322;49.488;8.480;2023-04-30T06:31:17;11.63;;;9.05;;
41629;SDS011;27322;49.488;8.480;2023-04-30T06:33:43;14.10;;;8.90;;
41629;SDS011;27322;49.488;8.480;2023-04-30T06:36:08;12.02;;;8.20;;
41629;SDS011;27322;49.488;8.480;2023-04-30T06:38:34;10.90;;;8.60;;
41629;SDS011;27322;49.488;8.480;2023-04-30T06:40:59;12.50;;;8.23;;
41629;SDS011;27322;49.488;8.480;2023-04-30T06:43:25;10.07;;;7.68;;
41629;SDS011;27322;49.488;8.480;2023-04-30T06:45:51;13.23;;;7.70;;
41629;SDS011;27322;49.488;8.480;2023-04-30T06:48:16;11.10;;;7.53;;
41629;SDS011;27322;49.488;8.480;2023-04-30T06:50:42;11.52;;;7.60;;
41629;SDS011;27322;49.488;8.480;2023-04-30T06:53:10;12.80;;;7.80;;
41629;SDS011;27322;49.488;8.480;2023-04-30T06:55:36;10.68;;;7.55;;
41629;SDS011;27322;49.488;8.480;2023-04-30T06:58:02;10.07;;;7.65;;
41629;SDS011;27322;49.488;8.480;2023-04-30T07:00:29;11.80;;;8.18;;
41629;SDS011;27322;49.488;8.480;2023-04-30T07:02:55;10.50;;;7.70;;
41629;SDS011;27322;49.488;8.480;2023-04-30T07:05:24;10.10;;;8.18;;
41629;SDS011;27322;49.488;8.480;2023-04-30T07:07:50;11.65;;;7.95;;
41629;SDS011;27322;49.488;8.480;2023-04-30T07:10:16;10.93;;;7.20;;
41629;SDS011;27322;49.488;8.480;2023-04-30T07:12:42;10.63;;;7.45;;
41629;SDS011;27322;49.488;8.480;2023-04-30T07:15:08;9.80;;;7.20;;
41629;SDS011;27322;49.488;8.480;2023-04-30T07:17:34;10.32;;;7.43;;
41629;SDS011;27322;49.488;8.480;2023-04-30T07:20:00;9.73;;;7.40;;
41629;SDS011;27322;49.488;8.480;2023-04-30T07:22:25;9.25;;;7.00;;
41629;SDS011;27322;49.488;8.480;2023-04-30T07:24:51;11.07;;;7.47;;
41629;SDS011;27322;49.488;8.480;2023-04-30T07:27:17;11.55;;;7.63;;
41629;SDS011;27322;49.488;8.480;2023-04-30T07:29:42;9.88;;;7.15;;
41629;SDS011;27322;49.488;8.480;2023-04-30T07:32:08;10.43;;;6.85;;
41629;SDS011;27322;49.488;8.480;2023-04-30T07:34:33;11.77;;;7.10;;
41629;SDS011;27322;49.488;8.480;2023-04-30T07:36:59;10.45;;;6.65;;
41629;SDS011;27322;49.488;8.480;2023-04-30T07:39:25;9.13;;;5.95;;
41629;SDS011;27322;49.488;8.480;2023-04-30T07:41:50;10.23;;;6.40;;
41629;SDS011;27322;49.488;8.480;2023-04-30T07:44:16;10.13;;;6.53;;
41629;SDS011;27322;49.488;8.480;2023-04-30T07:46:41;8.88;;;5.68;;
41629;SDS011;27322;49.488;8.480;2023-04-30T07:49:07;9.65;;;5.95;;
41629;SDS011;27322;49.488;8.480;2023-04-30T07:51:33;9.10;;;5.85;;
41629;SDS011;27322;49.488;8.480;2023-04-30T07:53:59;9.65;;;6.20;;
41629;SDS011;27322;49.488;8.480;2023-04-30T07:56:25;7.57;;;5.68;;
41629;SDS011;27322;49.488;8.480;2023-04-30T07:58:51;7.50;;;5.13;;
41629;SDS011;27322;49.488;8.480;2023-04-30T08:01:16;8.80;;;5.20;;
41629;SDS011;27322;49.488;8.480;2023-04-30T08:03:42;7.40;;;5.00;;
41629;SDS011;27322;49.488;8.480;2023-04-30T08:06:07;7.72;;;4.95;;
41629;SDS011;27322;49.488;8.480;2023-04-30T08:08:33;6.63;;;4.43;;
41629;SDS011;27322;49.488;8.480;2023-04-30T08:10:58;7.35;;;4.05;;
41629;SDS011;27322;49.488;8.480;2023-04-30T08:13:24;6.22;;;4.20;;
41629;SDS011;27322;49.488;8.480;2023-04-30T08:15:49;9.10;;;4.15;;
41629;SDS011;27322;49.488;8.480;2023-04-30T08:18:15;7.88;;;3.72;;
41629;SDS011;27322;49.488;8.480;2023-04-30T08:20:40;6.55;;;3.88;;
41629;SDS011;27322;49.488;8.480;2023-04-30T08:23:06;5.53;;;3.72;;
41629;SDS011;27322;49.488;8.480;2023-04-30T08:25:32;6.07;;;3.80;;
41629;SDS011;27322;49.488;8.480;2023-04-30T08:27:58;8.55;;;3.90;;
41629;SDS011;27322;49.488;8.480;2023-04-30T08:30:23;6.68;;;4.10;;
41629;SDS011;27322;49.488;8.480;2023-04-30T08:32:49;6.07;;;3.85;;
41629;SDS011;27322;49.488;8.480;2023-04-30T08:35:15;6.38;;;4.05;;
41629;SDS011;27322;49.488;8.480;2023-04-30T08:37:41;6.80;;;3.78;;
41629;SDS011;27322;49.488;8.480;2023-04-30T08:40:07;6.90;;;4.07;;
41629;SDS011;27322;49.488;8.480;2023-04-30T08:42:35;6.90;;;4.22;;
41629;SDS011;27322;49.488;8.480;2023-04-30T08:45:02;6.20;;;3.58;;
41629;SDS011;27322;49.488;8.480;2023-04-30T08:47:28;6.55;;;3.20;;
41629;SDS011;27322;49.488;8.480;2023-04-30T08:49:54;5.40;;;2.92;;
41629;SDS011;27322;49.488;8.480;2023-04-30T08:52:20;6.28;;;2.95;;
41629;SDS011;27322;49.488;8.480;2023-04-30T08:54:46;7.10;;;3.42;;
41629;SDS011;27322;49.488;8.480;2023-04-30T08:57:12;5.28;;;2.90;;
41629;SDS011;27322;49.488;8.480;2023-04-30T08:59:38;6.75;;;2.83;;
41629;SDS011;27322;49.488;8.480;2023-04-30T09:02:04;5.68;;;2.80;;
41629;SDS011;27322;49.488;8.480;2023-04-30T09:04:30;5.00;;;2.90;;
41629;SDS011;27322;49.488;8.480;2023-04-30T09:06:55;4.40;;;2.60;;
41629;SDS011;27322;49.488;8.480;2023-04-30T09:09:26;5.82;;;2.10;;
41629;SDS011;27322;49.488;8.480;2023-04-30T09:12:28;3.58;;;2.00;;
41629;SDS011;27322;49.488;8.480;2023-04-30T09:15:05;4.20;;;2.47;;
41629;SDS011;27322;49.488;8.480;2023-04-30T09:17:33;3.72;;;2.25;;
41629;SDS011;27322;49.488;8.480;2023-04-30T09:20:32;4.47;;;2.10;;
41629;SDS011;27322;49.488;8.480;2023-04-30T09:22:51;5.85;;;2.22;;
41629;SDS011;27322;49.488;8.480;2023-04-30T09:25:39;6.82;;;2.10;;
41629;SDS011;27322;49.488;8.480;2023-04-30T09:28:12;6.63;;;2.33;;
41629;SDS011;27322;49.488;8.480;2023-04-30T09:30:39;4.88;;;2.50;;
41629;SDS011;27322;49.488;8.480;2023-04-30T09:33:05;5.38;;;2.67;;
41629;SDS011;27322;49.488;8.480;2023-04-30T09:35:32;5.30;;;2.20;;
41629;SDS011;27322;49.488;8.480;2023-04-30T09:38:01;4.53;;;2.20;;
41629;SDS011;27322;49.488;8.480;2023-04-30T09:40:34;4.07;;;2.40;;
41629;SDS011;27322;49.488;8.480;2023-04-30T09:43:07;4.38;;;1.98;;
41629;SDS011;27322;49.488;8.480;2023-04-30T09:45:43;5.00;;;2.90;;
41629;SDS011;27322;49.488;8.480;2023-04-30T09:48:11;4.63;;;2.60;;
41629;SDS011;27322;49.488;8.480;2023-04-30T09:50:40;4.00;;;2.20;;
41629;SDS011;27322;49.488;8.480;2023-04-30T09:53:06;6.18;;;2.17;;
41629;SDS011;27322;49.488;8.480;2023-04-30T09:55:36;4.35;;;2.03;;
41629;SDS011;27322;49.488;8.480;2023-04-30T09:58:03;3.00;;;1.90;;
41629;SDS011;27322;49.488;8.480;2023-04-30T10:00:34;2.63;;;1.55;;
41629;SDS011;27322;49.488;8.480;2023-04-30T10:03:07;4.55;;;1.90;;
41629;SDS011;27322;49.488;8.480;2023-04-30T10:05:44;4.70;;;2.05;;
41629;SDS011;27322;49.488;8.480;2023-04-30T10:08:35;3.92;;;1.98;;
41629;SDS011;27322;49.488;8.480;2023-04-30T10:11:03;4.28;;;2.40;;
41629;SDS011;27322;49.488;8.480;2023-04-30T10:13:32;3.72;;;2.10;;
41629;SDS011;27322;49.488;8.480;2023-04-30T10:16:06;3.13;;;1.80;;
41629;SDS011;27322;49.488;8.480;2023-04-30T10:18:39;4.53;;;2.22;;
41629;SDS011;27322;49.488;8.480;2023-04-30T10:21:08;6.22;;;2.50;;
41629;SDS011;27322;49.488;8.480;2023-04-30T10:23:38;4.60;;;2.33;;
41629;SDS011;27322;49.488;8.480;2023-04-30T10:26:07;5.63;;;2.35;;
41629;SDS011;27322;49.488;8.480;2023-04-30T10:28:35;4.07;;;1.98;;
41629;SDS011;27322;49.488;8.480;2023-04-30T10:31:01;4.80;;;2.38;;
41629;SDS011;27322;49.488;8.480;2023-04-30T10:33:33;4.93;;;2.28;;
41629;SDS011;27322;49.488;8.480;2023-04-30T10:36:00;3.72;;;1.73;;
41629;SDS011;27322;49.488;8.480;2023-04-30T10:38:30;4.30;;;2.00;;
41629;SDS011;27322;49.488;8.480;2023-04-30T10:40:57;3.58;;;2.15;;
41629;SDS011;27322;49.488;8.480;2023-04-30T10:43:28;4.35;;;2.08;;
41629;SDS011;27322;49.488;8.480;2023-04-30T10:45:58;3.78;;;2.17;;
41629;SDS011;27322;49.488;8.480;2023-04-30T10:48:24;4.93;;;2.30;;
41629;SDS011;27322;49.488;8.480;2023-04-30T10:50:54;3.42;;;1.98;;
41629;SDS011;27322;49.488;8.480;2023-04-30T10:53:22;4.55;;;2.15;;
41629;SDS011;27322;49.488;8.480;2023-04-30T10:55:57;3.83;;;2.00;;
41629;SDS011;27322;49.488;8.480;2023-04-30T11:03:38;2.90;;;1.90;;
41629;SDS011;27322;49.488;8.480;2023-04-30T11:06:07;2.33;;;1.40;;
41629;SDS011;27322;49.488;8.480;2023-04-30T11:08:37;3.58;;;1.52;;
41629;SDS011;27322;49.488;8.480;2023-04-30T11:11:04;3.00;;;1.63;;
41629;SDS011;27322;49.488;8.480;2023-04-30T11:13:39;4.22;;;1.40;;
41629;SDS011;27322;49.488;8.480;2023-04-30T11:16:06;3.20;;;1.60;;
41629;SDS011;27322;49.488;8.480;2023-04-30T11:18:31;2.60;;;1.45;;
41629;SDS011;27322;49.488;8.480;2023-04-30T11:20:57;2.92;;;1.65;;
41629;SDS011;27322;49.488;8.480;2023-04-30T11:23:24;3.45;;;1.60;;
41629;SDS011;27322;49.488;8.480;2023-04-30T11:25:52;3.00;;;1.60;;
41629;SDS011;27322;49.488;8.480;2023-04-30T11:28:25;5.30;;;2.10;;
41629;SDS011;27322;49.488;8.480;2023-04-30T11:30:58;2.88;;;1.50;;
41629;SDS011;27322;49.488;8.480;2023-04-30T11:33:28;3.28;;;1.73;;
41629;SDS011;27322;49.488;8.480;2023-04-30T11:35:55;3.42;;;1.58;;
41629;SDS011;27322;49.488;8.480;2023-04-30T11:38:26;3.08;;;1.65;;
41629;SDS011;27322;49.488;8.480;2023-04-30T11:40:59;2.72;;;1.27;;
41629;SDS011;27322;49.488;8.480;2023-04-30T11:43:29;4.57;;;1.73;;
41629;SDS011;27322;49.488;8.480;2023-04-30T11:48:45;3.50;;;1.75;;
41629;SDS011;27322;49.488;8.480;2023-04-30T11:51:17;3.38;;;1.60;;
41629;SDS011;27322;49.488;8.480;2023-04-30T11:53:51;3.25;;;1.50;;
41629;SDS011;27322;49.488;8.480;2023-04-30T11:56:21;3.17;;;1.60;;
41629;SDS011;27322;49.488;8.480;2023-04-30T11:58:48;4.43;;;1.30;;
41629;SDS011;27322;49.488;8.480;2023-04-30T12:01:15;3.58;;;1.48;;
41629;SDS011;27322;49.488;8.480;2023-04-30T12:03:43;3.78;;;1.70;;
41629;SDS011;27322;49.488;8.480;2023-04-30T12:06:11;3.13;;;1.50;;
41629;SDS011;27322;49.488;8.480;2023-04-30T12:08:45;4.40;;;1.60;;
41629;SDS011;27322;49.488;8.480;2023-04-30T12:14:06;4.28;;;1.45;;
41629;SDS011;27322;49.488;8.480;2023-04-30T12:16:52;3.42;;;1.60;;
41629;SDS011;27322;49.488;8.480;2023-04-30T12:19:19;4.55;;;1.63;;
41629;SDS011;27322;49.488;8.480;2023-04-30T12:21:46;2.90;;;1.40;;
41629;SDS011;27322;49.488;8.480;2023-04-30T12:24:16;2.40;;;1.30;;
41629;SDS011;27322;49.488;8.480;2023-04-30T12:26:43;2.80;;;1.55;;
41629;SDS011;27322;49.488;8.480;2023-04-30T12:29:10;3.97;;;1.42;;
41629;SDS011;27322;49.488;8.480;2023-04-30T12:31:39;2.88;;;1.38;;
41629;SDS011;27322;49.488;8.480;2023-04-30T12:34:09;3.67;;;1.27;;
41629;SDS011;27322;49.488;8.480;2023-04-30T12:36:37;3.58;;;1.27;;
41629;SDS011;27322;49.488;8.480;2023-04-30T12:39:13;1.88;;;1.05;;
41629;SDS011;27322;49.488;8.480;2023-04-30T12:41:40;3.25;;;1.25;;
41629;SDS011;27322;49.488;8.480;2023-04-30T12:44:17;2.60;;;1.25;;
41629;SDS011;27322;49.488;8.480;2023-04-30T12:46:43;2.33;;;1.25;;
41629;SDS011;27322;49.488;8.480;2023-04-30T12:49:10;2.70;;;1.30;;
41629;SDS011;27322;49.488;8.480;2023-04-30T12:51:36;4.30;;;1.55;;
41629;SDS011;27322;49.488;8.480;2023-04-30T12:54:05;2.10;;;1.00;;
41629;SDS011;27322;49.488;8.480;2023-04-30T12:56:31;5.20;;;1.20;;
41629;SDS011;27322;49.488;8.480;2023-04-30T12:58:56;4.28;;;1.42;;
41629;SDS011;27322;49.488;8.480;2023-04-30T13:01:22;2.83;;;1.23;;
41629;SDS011;27322;49.488;8.480;2023-04-30T13:03:49;2.88;;;1.10;;
41629;SDS011;27322;49.488;8.480;2023-04-30T13:06:15;3.25;;;1.30;;
41629;SDS011;27322;49.488;8.480;2023-04-30T13:08:41;3.17;;;1.23;;
41629;SDS011;27322;49.488;8.480;2023-04-30T13:11:07;2.85;;;1.13;;
41629;SDS011;27322;49.488;8.480;2023-04-30T13:13:32;2.53;;;1.10;;
41629;SDS011;27322;49.488;8.480;2023-04-30T13:15:58;3.80;;;1.23;;
41629;SDS011;27322;49.488;8.480;2023-04-30T13:18:24;3.33;;;1.00;;
41629;SDS011;27322;49.488;8.480;2023-04-30T13:20:49;2.13;;;1.00;;
41629;SDS011;27322;49.488;8.480;2023-04-30T13:23:16;3.03;;;1.15;;
41629;SDS011;27322;49.488;8.480;2023-04-30T13:25:42;2.85;;;1.00;;
41629;SDS011;27322;49.488;8.480;2023-04-30T13:28:07;4.60;;;1.10;;
41629;SDS011;27322;49.488;8.480;2023-04-30T13:30:33;2.22;;;1.00;;
41629;SDS011;27322;49.488;8.480;2023-04-30T13:32:59;3.03;;;1.13;;
41629;SDS011;27322;49.488;8.480;2023-04-30T13:35:24;2.20;;;1.20;;
41629;SDS011;27322;49.488;8.480;2023-04-30T13:37:50;3.42;;;1.17;;
41629;SDS011;27322;49.488;8.480;2023-04-30T13:40:18;3.65;;;1.30;;
41629;SDS011;27322;49.488;8.480;2023-04-30T13:42:44;2.00;;;0.90;;
41629;SDS011;27322;49.488;8.480;2023-04-30T13:45:11;3.80;;;1.27;;
41629;SDS011;27322;49.488;8.480;2023-04-30T13:47:36;2.88;;;1.08;;
41629;SDS011;27322;49.488;8.480;2023-04-30T13:50:03;2.47;;;1.00;;
41629;SDS011;27322;49.488;8.480;2023-04-30T13:52:29;2.03;;;1.17;;
41629;SDS011;27322;49.488;8.480;2023-04-30T13:54:55;3.05;;;1.25;;
41629;SDS011;27322;49.488;8.480;2023-04-30T13:57:21;1.85;;;0.90;;
41629;SDS011;27322;49.488;8.480;2023-04-30T13:59:47;2.38;;;1.05;;
41629;SDS011;27322;49.488;8.480;2023-04-30T14:02:13;1.88;;;0.90;;
41629;SDS011;27322;49.488;8.480;2023-04-30T14:04:39;1.85;;;0.95;;
41629;SDS011;27322;49.488;8.480;2023-04-30T14:07:05;1.67;;;0.90;;
41629;SDS011;27322;49.488;8.480;2023-04-30T14:09:31;1.80;;;0.80;;
41629;SDS011;27322;49.488;8.480;2023-04-30T14:11:56;2.35;;;1.02;;
41629;SDS011;27322;49.488;8.480;2023-04-30T14:14:23;2.58;;;0.90;;
41629;SDS011;27322;49.488;8.480;2023-04-30T14:16:50;1.98;;;0.82;;
41629;SDS011;27322;49.488;8.480;2023-04-30T14:19:16;2.28;;;1.00;;
41629;SDS011;27322;49.488;8.480;2023-04-30T14:21:45;2.05;;;0.95;;
41629;SDS011;27322;49.488;8.480;2023-04-30T14:24:10;3.42;;;1.20;;
41629;SDS011;27322;49.488;8.480;2023-04-30T14:26:37;2.50;;;1.00;;
41629;SDS011;27322;49.488;8.480;2023-04-30T14:29:04;2.88;;;1.00;;
41629;SDS011;27322;49.488;8.480;2023-04-30T14:31:30;2.72;;;1.00;;
41629;SDS011;27322;49.488;8.480;2023-04-30T14:33:56;2.05;;;0.90;;
41629;SDS011;27322;49.488;8.480;2023-04-30T14:36:21;2.58;;;1.02;;
41629;SDS011;27322;49.488;8.480;2023-04-30T14:38:47;1.98;;;0.93;;
41629;SDS011;27322;49.488;8.480;2023-04-30T14:41:12;1.65;;;0.85;;
41629;SDS011;27322;49.488;8.480;2023-04-30T14:43:38;1.75;;;0.98;;
41629;SDS011;27322;49.488;8.480;2023-04-30T14:46:05;1.85;;;0.90;;
41629;SDS011;27322;49.488;8.480;2023-04-30T14:48:30;2.83;;;0.90;;
41629;SDS011;27322;49.488;8.480;2023-04-30T14:50:57;1.48;;;0.90;;
41629;SDS011;27322;49.488;8.480;2023-04-30T14:53:23;2.72;;;0.90;;
41629;SDS011;27322;49.488;8.480;2023-04-30T14:55:48;2.53;;;0.90;;
41629;SDS011;27322;49.488;8.480;2023-04-30T14:58:14;1.35;;;0.70;;
41629;SDS011;27322;49.488;8.480;2023-04-30T15:00:40;1.30;;;0.80;;
41629;SDS011;27322;49.488;8.480;2023-04-30T15:03:05;2.08;;;1.00;;
41629;SDS011;27322;49.488;8.480;2023-04-30T15:05:31;2.75;;;1.00;;
41629;SDS011;27322;49.488;8.480;2023-04-30T15:07:56;3.17;;;0.90;;
41629;SDS011;27322;49.488;8.480;2023-04-30T15:10:22;1.50;;;0.80;;